createdAt,value
2018-11-22T08:43:50.368Z,6.24
2018-11-22T08:49:45.390Z,6.62
2018-11-22T08:55:40.425Z,7.43
2018-11-22T09:01:35.419Z,8.61
2018-11-22T09:07:30.378Z,8.62
2018-11-22T09:13:25.391Z,8.26
2018-11-22T09:19:20.399Z,8
2018-11-22T09:25:15.396Z,8.81
2018-11-22T09:31:10.408Z,8.03
2018-11-22T09:37:05.422Z,8.63
2018-11-22T09:43:00.433Z,8.6
2018-11-22T09:48:55.411Z,7.73
2018-11-22T09:54:50.412Z,8.29
2018-11-22T10:00:45.422Z,8.14
2018-11-22T10:06:40.415Z,8.76
2018-11-22T10:12:35.522Z,8.23
2018-11-22T10:18:30.466Z,8.54
2018-11-22T10:24:25.472Z,7.66
2018-11-22T10:30:20.443Z,8.37
2018-11-22T10:36:15.512Z,5.53
2018-11-22T10:42:10.460Z,5.12
2018-11-22T10:48:05.447Z,5.47
2018-11-22T10:54:00.445Z,5.39
2018-11-22T10:59:55.471Z,6.58
2018-11-22T11:05:50.480Z,6.4
2018-11-22T11:11:45.459Z,6.25
2018-11-22T11:17:40.463Z,5.89
2018-11-22T11:23:35.498Z,6.46
2018-11-22T11:29:30.495Z,6.85
2018-11-22T11:35:25.471Z,7.15
2018-11-22T11:41:20.475Z,6.93
2018-11-22T11:47:15.464Z,6.16
2018-11-22T11:53:10.502Z,5.51
2018-11-22T11:59:05.495Z,5.46
2018-11-22T12:05:00.496Z,5.14
2018-11-22T12:10:55.575Z,4.7
2018-11-22T12:16:50.540Z,4.77
2018-11-22T12:22:45.512Z,4.74
2018-11-22T12:28:40.510Z,5.62
2018-11-22T12:34:35.497Z,5.43
2018-11-22T12:40:30.504Z,5.54
2018-11-22T12:46:25.506Z,5.73
2018-11-22T12:52:20.552Z,5.98
2018-11-22T12:58:15.523Z,5.83
2018-11-22T13:04:10.569Z,5.93
2018-11-22T13:10:05.520Z,5.83
2018-11-22T13:16:00.539Z,5.52
2018-11-22T13:21:55.552Z,5.22
2018-11-22T13:27:50.536Z,5.38
2018-11-22T13:33:45.599Z,4.09
2018-11-22T13:39:40.554Z,2.27
2018-11-22T13:45:35.570Z,1.76
2018-11-22T13:51:30.574Z,2.18
2018-11-22T13:57:25.547Z,2.27
2018-11-22T14:03:20.608Z,1.83
2018-11-22T14:09:15.601Z,1.86
2018-11-22T14:15:10.577Z,2.1
2018-11-22T14:21:05.623Z,2.09
2018-11-22T14:27:00.569Z,1.7
2018-11-22T14:32:55.574Z,13.81
2018-11-22T14:38:50.631Z,5.74
2018-11-22T14:44:45.583Z,11.93
2018-11-22T14:50:40.588Z,3.69
2018-11-22T14:56:35.628Z,13.83
2018-11-22T15:02:30.591Z,2.65
2018-11-22T15:08:25.607Z,2.73
2018-11-22T15:14:20.623Z,2.36
2018-11-22T15:20:15.625Z,2.17
2018-11-22T15:26:10.608Z,2.47
2018-11-22T15:32:05.628Z,2.71
2018-11-22T15:38:00.633Z,4.06
2018-11-22T15:43:55.631Z,4.42
2018-11-22T15:49:50.620Z,7.63
2018-11-22T15:55:45.656Z,6.18
2018-11-22T16:01:40.630Z,7.13
2018-11-22T16:07:35.647Z,7.44
2018-11-22T16:13:30.666Z,7.77
2018-11-22T16:19:25.685Z,7.8
2018-11-22T16:25:20.675Z,6.86
2018-11-22T16:31:15.642Z,7.13
2018-11-22T16:37:10.668Z,6.38
2018-11-22T16:43:05.668Z,8.35
2018-11-22T16:49:00.681Z,10.35
2018-11-22T16:54:55.701Z,9.37
2018-11-22T17:00:50.718Z,10.25
2018-11-22T17:06:45.702Z,10.64
2018-11-22T17:12:40.694Z,9.1
2018-11-22T17:18:35.664Z,25.53
2018-11-22T17:24:30.685Z,20.19
2018-11-22T17:30:25.691Z,15.11
2018-11-22T17:36:20.697Z,15.12
2018-11-22T17:42:15.734Z,15.04
2018-11-22T17:48:10.694Z,13.16
2018-11-22T17:54:05.699Z,13.31
2018-11-22T18:00:00.713Z,13.23
2018-11-22T18:05:55.715Z,12.23
2018-11-22T18:11:50.707Z,12.38
2018-11-22T18:17:45.726Z,11.03
2018-11-22T18:23:40.720Z,11.47
2018-11-22T18:29:35.756Z,10.35
2018-11-22T18:35:30.714Z,9.81
2018-11-22T18:41:25.733Z,14.36
2018-11-22T18:47:20.719Z,19.97
2018-11-22T18:53:15.742Z,13.16
2018-11-22T18:59:10.741Z,10.77
2018-11-22T19:05:06.340Z,10.24
2018-11-22T19:11:00.758Z,11.4
2018-11-22T19:16:55.769Z,12.64
2018-11-22T19:22:50.767Z,11.43
2018-11-22T19:28:45.755Z,13.21
2018-11-22T19:34:40.759Z,14.09
2018-11-22T19:40:35.763Z,14.13
2018-11-22T19:46:30.752Z,10.27
2018-11-22T19:52:25.772Z,12.04
2018-11-22T19:58:20.781Z,9.87
2018-11-22T20:04:15.775Z,12.53
2018-11-22T20:10:10.770Z,13.43
2018-11-22T20:16:05.809Z,14.24
2018-11-22T20:22:00.783Z,16.46
2018-11-22T20:27:55.805Z,13.18
2018-11-22T20:33:50.860Z,13.73
2018-11-22T20:39:45.813Z,13.97
2018-11-22T20:45:41.260Z,16.07
2018-11-22T20:51:35.832Z,14.24
2018-11-22T20:57:30.803Z,12.97
2018-11-22T21:03:25.837Z,14.18
2018-11-22T21:09:20.797Z,13.77
2018-11-22T21:15:15.831Z,12.3
2018-11-22T21:21:10.903Z,13.85
2018-11-22T21:27:05.821Z,12.23
2018-11-22T21:33:00.849Z,10.57
2018-11-22T21:38:55.861Z,12.91
2018-11-22T21:44:50.835Z,14.16
2018-11-22T21:50:45.904Z,13.91
2018-11-22T21:56:40.832Z,15.07
2018-11-22T22:02:35.847Z,14.4
2018-11-22T22:08:30.835Z,13.17
2018-11-22T22:14:25.843Z,13.14
2018-11-22T22:20:20.889Z,13.3
2018-11-22T22:26:15.874Z,13.29
2018-11-22T22:32:10.906Z,15.88
2018-11-22T22:38:05.877Z,14.44
2018-11-22T22:44:00.917Z,13.67
2018-11-22T22:49:55.847Z,12.81
2018-11-22T22:55:50.876Z,12.87
2018-11-22T23:01:45.898Z,13.67
2018-11-22T23:07:40.879Z,14.21
2018-11-22T23:13:35.911Z,11.58
2018-11-22T23:19:30.889Z,12.58
2018-11-22T23:25:25.891Z,12.75
2018-11-22T23:31:20.921Z,11.54
2018-11-22T23:37:15.942Z,11.62
2018-11-22T23:43:10.898Z,12.53
2018-11-22T23:49:05.924Z,12.05
2018-11-22T23:55:00.913Z,13.32
